createdAt,value
2018-10-21T00:01:05.146Z,99.90
2018-10-21T00:03:35.079Z,99.90
2018-10-21T00:06:04.856Z,99.90
2018-10-21T00:08:34.531Z,99.90
2018-10-21T00:11:04.246Z,99.90
2018-10-21T00:13:33.923Z,99.90
2018-10-21T00:16:03.810Z,99.90
2018-10-21T00:18:33.459Z,99.90
2018-10-21T00:21:03.238Z,99.90
2018-10-21T00:23:32.843Z,99.90
2018-10-21T00:26:02.598Z,99.90
2018-10-21T00:28:32.349Z,99.90
2018-10-21T00:31:02.055Z,99.90
2018-10-21T00:33:31.726Z,99.90
2018-10-21T00:36:08.113Z,99.90
2018-10-21T00:38:37.817Z,99.90
2018-10-21T00:41:07.538Z,99.90
2018-10-21T00:43:37.175Z,99.90
2018-10-21T00:46:07.122Z,99.90
2018-10-21T00:48:36.883Z,99.90
2018-10-21T00:51:06.702Z,99.90
2018-10-21T00:53:36.333Z,99.90
2018-10-21T00:56:06.199Z,99.90
2018-10-21T00:58:36.089Z,99.90
2018-10-21T01:01:05.964Z,99.90
2018-10-21T01:03:35.693Z,99.90
2018-10-21T01:06:05.515Z,99.90
2018-10-21T01:08:35.266Z,99.90
2018-10-21T01:11:05.462Z,99.90
2018-10-21T01:13:35.306Z,99.90
2018-10-21T01:16:05.337Z,99.90
2018-10-21T01:18:35.060Z,99.90
2018-10-21T01:21:05.232Z,99.90
2018-10-21T01:23:34.968Z,99.90
2018-10-21T01:26:05.051Z,99.90
2018-10-21T01:28:34.748Z,99.90
2018-10-21T01:31:04.607Z,99.90
2018-10-21T01:33:34.311Z,99.90
2018-10-21T01:36:04.029Z,99.90
2018-10-21T01:38:33.730Z,99.90
2018-10-21T01:41:03.466Z,99.90
2018-10-21T01:43:33.915Z,99.90
2018-10-21T01:46:04.583Z,99.90
2018-10-21T01:48:34.331Z,99.90
2018-10-21T01:51:04.128Z,99.90
2018-10-21T01:53:33.934Z,99.90
2018-10-21T01:56:03.829Z,99.90
2018-10-21T01:58:33.660Z,99.90
2018-10-21T02:01:03.353Z,99.90
2018-10-21T02:03:33.105Z,99.90
2018-10-21T02:06:02.845Z,99.90
2018-10-21T02:08:32.596Z,99.90
2018-10-21T02:11:03.019Z,99.90
2018-10-21T02:13:32.712Z,99.90
2018-10-21T02:16:02.393Z,99.90
2018-10-21T02:18:32.171Z,99.90
2018-10-21T02:21:01.856Z,99.90
2018-10-21T02:23:31.530Z,99.90
2018-10-21T02:26:01.253Z,99.90
2018-10-21T02:28:30.949Z,99.90
2018-10-21T02:31:00.673Z,99.90
2018-10-21T02:33:30.522Z,99.90
2018-10-21T02:36:00.103Z,99.90
2018-10-21T02:38:29.843Z,99.90
2018-10-21T02:42:19.530Z,99.90
2018-10-21T02:44:49.223Z,99.90
2018-10-21T02:47:19.032Z,99.90
2018-10-21T02:49:48.735Z,99.90
2018-10-21T02:52:18.427Z,99.90
2018-10-21T02:54:48.131Z,99.90
2018-10-21T02:57:20.534Z,99.90
2018-10-21T02:59:50.153Z,99.90
2018-10-21T03:02:19.845Z,99.90
2018-10-21T03:04:49.565Z,99.90
2018-10-21T03:07:19.297Z,99.90
2018-10-21T03:09:48.975Z,99.90
2018-10-21T03:12:18.735Z,99.90
2018-10-21T03:14:48.421Z,99.90
2018-10-21T03:17:18.132Z,99.90
2018-10-21T03:19:47.846Z,99.90
2018-10-21T03:22:17.533Z,99.90
2018-10-21T03:24:47.313Z,99.90
2018-10-21T03:27:17.049Z,99.90
2018-10-21T03:29:46.823Z,99.90
2018-10-21T03:32:16.491Z,99.90
2018-10-21T03:34:46.210Z,99.90
2018-10-21T03:37:15.960Z,99.90
2018-10-21T03:39:45.650Z,99.90
2018-10-21T03:42:15.398Z,99.90
2018-10-21T03:44:45.111Z,99.90
2018-10-21T03:47:14.802Z,99.90
2018-10-21T03:49:44.543Z,99.90
2018-10-21T03:52:14.224Z,99.90
2018-10-21T03:54:47.422Z,99.90
2018-10-21T03:57:17.174Z,99.90
2018-10-21T03:59:46.870Z,99.90
2018-10-21T04:02:16.558Z,99.90
2018-10-21T04:04:46.248Z,99.90
2018-10-21T04:07:15.966Z,99.90
2018-10-21T04:09:45.665Z,99.90
2018-10-21T04:12:15.396Z,99.90
2018-10-21T04:14:45.193Z,99.90
2018-10-21T04:17:14.889Z,99.90
2018-10-21T04:19:44.578Z,99.90
2018-10-21T04:22:14.269Z,99.90
2018-10-21T04:24:43.946Z,99.90
2018-10-21T04:27:13.679Z,99.90
2018-10-21T04:29:43.385Z,99.90
2018-10-21T04:32:13.099Z,99.90
2018-10-21T04:34:42.815Z,99.90
2018-10-21T04:38:28.746Z,99.90
2018-10-21T04:40:58.553Z,99.90
2018-10-21T04:43:28.251Z,99.90
2018-10-21T04:45:58.004Z,99.90
2018-10-21T04:48:27.686Z,99.90
2018-10-21T04:50:57.378Z,99.90
2018-10-21T04:53:27.100Z,99.90
2018-10-21T04:55:56.766Z,99.90
2018-10-21T04:58:26.613Z,99.90
2018-10-21T05:00:56.282Z,99.90
2018-10-21T05:03:25.993Z,99.90
2018-10-21T05:05:55.666Z,99.90
2018-10-21T05:08:25.435Z,99.90
2018-10-21T05:10:55.172Z,99.90
2018-10-21T05:13:24.852Z,99.90
2018-10-21T05:15:54.560Z,99.90
2018-10-21T05:18:24.234Z,99.90
2018-10-21T05:20:53.954Z,99.90
2018-10-21T05:23:23.710Z,99.90
2018-10-21T05:25:53.438Z,99.90
2018-10-21T05:28:23.122Z,99.90
2018-10-21T05:30:52.830Z,99.90
2018-10-21T05:33:22.515Z,99.90
2018-10-21T05:35:52.247Z,99.90
2018-10-21T05:38:21.922Z,99.90
2018-10-21T05:40:51.627Z,99.90
2018-10-21T05:43:21.354Z,99.90
2018-10-21T05:45:51.025Z,99.90
2018-10-21T05:48:20.754Z,99.90
2018-10-21T05:50:50.461Z,99.90
2018-10-21T05:53:20.243Z,99.90
2018-10-21T05:55:49.971Z,99.70
2018-10-21T05:58:19.695Z,99.70
2018-10-21T06:00:49.371Z,99.70
2018-10-21T06:03:19.083Z,99.90
2018-10-21T06:05:49.418Z,99.90
2018-10-21T06:08:19.123Z,99.90
2018-10-21T06:10:48.836Z,99.90
2018-10-21T06:13:18.523Z,99.90
2018-10-21T06:15:48.564Z,99.90
2018-10-21T06:18:22.473Z,99.90
2018-10-21T06:20:54.239Z,99.90
2018-10-21T06:23:23.917Z,99.90
2018-10-21T06:25:53.761Z,99.90
2018-10-21T06:28:23.645Z,99.90
2018-10-21T06:30:53.369Z,99.90
2018-10-21T06:33:23.075Z,99.90
2018-10-21T06:35:52.781Z,99.90
2018-10-21T06:38:22.513Z,99.90
2018-10-21T06:40:52.263Z,99.90
2018-10-21T06:43:22.013Z,99.80
2018-10-21T06:45:51.751Z,99.50
2018-10-21T06:48:21.484Z,99.60
2018-10-21T06:50:51.433Z,99.10
2018-10-21T06:53:21.165Z,99.00
2018-10-21T06:55:50.893Z,98.80
2018-10-21T06:58:20.731Z,98.70
2018-10-21T07:00:50.468Z,98.40
2018-10-21T07:03:20.242Z,98.60
2018-10-21T07:06:23.962Z,99.10
2018-10-21T07:08:54.935Z,98.70
2018-10-21T07:11:24.677Z,98.00
2018-10-21T07:13:54.715Z,96.90
2018-10-21T07:16:24.595Z,96.50
2018-10-21T07:18:54.408Z,96.40
2018-10-21T07:21:24.094Z,96.10
2018-10-21T07:23:53.932Z,95.70
2018-10-21T07:26:23.624Z,95.40
2018-10-21T07:28:53.484Z,94.50
2018-10-21T07:31:23.261Z,94.80
2018-10-21T07:33:52.952Z,94.40
2018-10-21T07:36:22.755Z,93.80
2018-10-21T07:38:52.406Z,93.20
2018-10-21T07:41:22.134Z,92.70
2018-10-21T07:43:51.860Z,92.00
2018-10-21T07:46:21.630Z,91.90
2018-10-21T07:48:51.375Z,90.80
2018-10-21T07:51:21.133Z,90.80
2018-10-21T07:53:51.224Z,90.60
2018-10-21T07:56:20.962Z,90.00
2018-10-21T07:58:50.671Z,89.80
2018-10-21T08:01:20.524Z,88.60
2018-10-21T08:03:50.302Z,88.40
2018-10-21T08:06:34.030Z,88.00
2018-10-21T08:09:05.688Z,88.50
2018-10-21T08:11:35.582Z,86.20
2018-10-21T08:14:05.582Z,87.20
2018-10-21T08:16:35.500Z,86.50
2018-10-21T08:19:05.807Z,86.20
2018-10-21T08:21:35.600Z,84.20
2018-10-21T08:24:05.708Z,85.50
2018-10-21T08:26:35.558Z,84.50
2018-10-21T08:29:05.584Z,84.20
2018-10-21T08:31:35.372Z,84.80
2018-10-21T08:34:05.429Z,84.60
2018-10-21T08:36:35.216Z,84.10
2018-10-21T08:39:06.763Z,83.30
2018-10-21T08:41:36.722Z,84.10
2018-10-21T08:44:06.592Z,85.50
2018-10-21T08:46:36.345Z,82.50
2018-10-21T08:49:06.414Z,81.80
2018-10-21T08:51:36.137Z,82.00
2018-10-21T08:54:06.460Z,83.60
2018-10-21T08:56:36.305Z,81.90
2018-10-21T08:59:06.297Z,82.70
2018-10-21T09:01:36.141Z,82.30
2018-10-21T09:04:06.129Z,80.10
2018-10-21T09:06:35.889Z,80.20
2018-10-21T09:09:08.213Z,81.50
2018-10-21T09:11:38.104Z,79.60
2018-10-21T09:14:07.849Z,78.00
2018-10-21T09:16:37.833Z,77.30
2018-10-21T09:19:07.612Z,76.10
2018-10-21T09:21:37.258Z,75.60
2018-10-21T09:24:07.198Z,74.70
2018-10-21T09:26:37.695Z,74.30
2018-10-21T09:29:07.678Z,74.50
2018-10-21T09:31:37.418Z,73.60
2018-10-21T09:34:07.366Z,69.20
2018-10-21T09:36:37.325Z,69.70
2018-10-21T09:39:10.541Z,70.90
2018-10-21T09:41:40.323Z,70.20
2018-10-21T09:44:10.705Z,69.70
2018-10-21T09:46:41.418Z,67.90
2018-10-21T09:49:12.058Z,66.60
2018-10-21T09:51:41.750Z,68.30
2018-10-21T09:54:11.575Z,67.10
2018-10-21T09:56:41.418Z,64.70
2018-10-21T09:59:11.249Z,62.40
2018-10-21T10:01:46.272Z,62.00
2018-10-21T10:04:16.189Z,62.80
2018-10-21T10:06:46.093Z,60.20
2018-10-21T10:09:15.913Z,59.60
2018-10-21T10:11:45.642Z,57.70
2018-10-21T10:14:15.406Z,57.60
2018-10-21T10:16:45.185Z,57.20
2018-10-21T10:19:14.984Z,57.70
2018-10-21T10:21:44.714Z,56.80
2018-10-21T10:24:14.501Z,56.80
2018-10-21T10:26:44.261Z,56.20
2018-10-21T10:29:14.047Z,55.50
2018-10-21T10:31:43.770Z,55.60
2018-10-21T10:34:13.729Z,54.30
2018-10-21T10:36:43.385Z,55.20
2018-10-21T10:39:13.156Z,53.70
2018-10-21T10:41:42.934Z,52.00
2018-10-21T10:44:12.629Z,53.30
2018-10-21T10:46:42.434Z,52.40
2018-10-21T10:49:12.285Z,52.30
2018-10-21T10:51:42.014Z,51.70
2018-10-21T10:54:11.735Z,53.40
2018-10-21T10:56:41.444Z,51.30
2018-10-21T10:59:11.243Z,51.60
2018-10-21T11:01:41.011Z,49.00
2018-10-21T11:04:10.826Z,48.60
2018-10-21T11:06:40.533Z,47.00
2018-10-21T11:09:11.126Z,45.90
2018-10-21T11:11:41.048Z,46.90
2018-10-21T11:14:10.814Z,45.90
2018-10-21T11:16:40.616Z,45.60
2018-10-21T11:19:10.353Z,45.10
2018-10-21T11:21:40.086Z,45.80
2018-10-21T11:24:09.822Z,44.60
2018-10-21T11:26:39.548Z,44.60
2018-10-21T11:29:09.414Z,44.10
2018-10-21T11:31:39.184Z,45.30
2018-10-21T11:34:08.979Z,44.70
2018-10-21T11:36:38.695Z,43.60
2018-10-21T11:39:09.210Z,43.90
2018-10-21T11:41:38.984Z,43.60
2018-10-21T11:44:08.757Z,42.90
2018-10-21T11:46:38.472Z,43.40
2018-10-21T11:49:08.220Z,41.30
2018-10-21T11:51:37.928Z,42.50
2018-10-21T11:54:07.689Z,42.00
2018-10-21T11:56:38.486Z,39.10
2018-10-21T11:59:09.235Z,38.00
2018-10-21T12:01:38.932Z,38.50
2018-10-21T12:04:08.695Z,40.60
2018-10-21T12:06:38.433Z,36.40
2018-10-21T12:09:11.005Z,36.90
2018-10-21T12:11:40.773Z,34.90
2018-10-21T12:14:11.302Z,35.10
2018-10-21T12:16:41.171Z,33.70
2018-10-21T12:19:11.058Z,33.90
2018-10-21T12:21:40.756Z,34.90
2018-10-21T12:24:10.501Z,34.00
2018-10-21T12:26:40.353Z,35.00
2018-10-21T12:29:10.084Z,33.40
2018-10-21T12:31:39.806Z,34.50
2018-10-21T12:34:09.677Z,35.30
2018-10-21T12:36:39.531Z,35.00
2018-10-21T12:39:10.335Z,36.10
2018-10-21T12:41:40.801Z,37.10
2018-10-21T12:44:10.676Z,36.70
2018-10-21T12:46:40.468Z,37.40
2018-10-21T12:49:10.426Z,35.80
2018-10-21T12:51:40.095Z,36.30
2018-10-21T12:54:10.045Z,34.30
2018-10-21T12:56:39.862Z,33.70
2018-10-21T12:59:09.884Z,33.10
2018-10-21T13:01:39.646Z,34.90
2018-10-21T13:04:09.444Z,33.50
2018-10-21T13:06:39.194Z,34.60
2018-10-21T13:09:09.690Z,34.10
2018-10-21T13:11:39.485Z,33.50
2018-10-21T13:14:09.475Z,34.40
2018-10-21T13:16:39.201Z,33.10
2018-10-21T13:19:08.997Z,33.30
2018-10-21T13:21:38.783Z,34.10
2018-10-21T13:24:08.530Z,34.40
2018-10-21T13:26:38.308Z,33.80
2018-10-21T13:29:08.077Z,34.20
2018-10-21T13:31:37.817Z,33.60
2018-10-21T13:34:07.632Z,33.70
2018-10-21T13:36:37.263Z,32.60
2018-10-21T13:39:12.099Z,32.40
2018-10-21T13:41:42.522Z,32.30
2018-10-21T13:44:12.333Z,33.20
2018-10-21T13:46:42.789Z,32.60
2018-10-21T13:49:12.716Z,32.70
2018-10-21T13:51:42.555Z,34.50
2018-10-21T13:54:12.486Z,35.00
2018-10-21T13:56:42.221Z,34.70
2018-10-21T13:59:12.066Z,34.70
2018-10-21T14:01:41.865Z,35.70
2018-10-21T14:04:11.734Z,36.40
2018-10-21T14:06:41.504Z,37.00
2018-10-21T14:09:13.015Z,36.40
2018-10-21T14:11:42.779Z,37.20
2018-10-21T14:14:12.751Z,37.90
2018-10-21T14:16:42.658Z,37.20
2018-10-21T14:19:13.220Z,37.50
2018-10-21T14:21:43.384Z,37.90
2018-10-21T14:24:13.185Z,37.50
2018-10-21T14:26:43.098Z,39.00
2018-10-21T14:29:12.763Z,38.70
2018-10-21T14:31:42.514Z,38.40
2018-10-21T14:34:12.575Z,39.10
2018-10-21T14:36:42.606Z,38.80
2018-10-21T14:39:13.384Z,39.20
2018-10-21T14:41:43.004Z,39.20
2018-10-21T14:44:12.742Z,38.40
2018-10-21T14:46:42.575Z,38.60
2018-10-21T14:49:12.433Z,38.60
2018-10-21T14:51:42.563Z,38.30
2018-10-21T14:54:12.457Z,39.80
2018-10-21T14:56:42.123Z,38.60
2018-10-21T14:59:11.853Z,39.80
2018-10-21T15:01:41.756Z,40.30
2018-10-21T15:04:11.545Z,40.00
2018-10-21T15:06:41.254Z,40.60
2018-10-21T15:09:12.915Z,40.00
2018-10-21T15:11:42.979Z,40.20
2018-10-21T15:14:13.022Z,39.90
2018-10-21T15:16:42.605Z,40.50
2018-10-21T15:19:12.339Z,40.20
2018-10-21T15:21:42.221Z,40.80
2018-10-21T15:24:12.100Z,41.10
2018-10-21T15:26:44.876Z,41.30
2018-10-21T15:29:14.690Z,41.10
2018-10-21T15:31:44.533Z,41.60
2018-10-21T15:34:14.564Z,41.50
2018-10-21T15:36:44.243Z,42.20
2018-10-21T15:39:14.109Z,41.70
2018-10-21T15:41:43.982Z,42.20
2018-10-21T15:44:13.796Z,42.40
2018-10-21T15:46:43.537Z,42.50
2018-10-21T15:49:13.691Z,43.00
2018-10-21T15:51:43.455Z,43.00
2018-10-21T15:54:13.348Z,43.00
2018-10-21T15:56:43.335Z,43.50
2018-10-21T15:59:13.039Z,42.90
2018-10-21T16:01:42.933Z,43.40
2018-10-21T16:04:12.685Z,44.10
2018-10-21T16:06:42.555Z,44.60
2018-10-21T16:09:13.288Z,44.80
2018-10-21T16:11:43.038Z,44.10
2018-10-21T16:14:13.047Z,44.20
2018-10-21T16:16:42.789Z,45.20
2018-10-21T16:19:12.532Z,45.50
2018-10-21T16:21:42.524Z,46.60
2018-10-21T16:24:12.274Z,46.60
2018-10-21T16:26:42.031Z,47.00
2018-10-21T16:29:11.914Z,47.20
2018-10-21T16:31:41.807Z,47.50
2018-10-21T16:34:11.652Z,47.20
2018-10-21T16:36:41.430Z,47.90
2018-10-21T16:39:11.731Z,48.20
2018-10-21T16:41:41.388Z,49.00
2018-10-21T16:44:11.264Z,49.30
2018-10-21T16:46:41.131Z,49.90
2018-10-21T16:49:10.960Z,50.50
2018-10-21T16:51:40.938Z,51.20
2018-10-21T16:54:10.808Z,51.00
2018-10-21T16:56:40.460Z,50.90
2018-10-21T16:59:10.367Z,51.90
2018-10-21T17:01:40.299Z,52.10
2018-10-21T17:04:10.094Z,52.30
2018-10-21T17:06:39.948Z,52.30
2018-10-21T17:09:12.194Z,52.30
2018-10-21T17:11:42.456Z,52.00
2018-10-21T17:14:12.331Z,52.80
2018-10-21T17:16:42.173Z,52.90
2018-10-21T17:19:12.006Z,52.90
2018-10-21T17:21:41.667Z,53.00
2018-10-21T17:24:11.556Z,53.60
2018-10-21T17:26:41.412Z,54.20
2018-10-21T17:29:11.195Z,53.90
2018-10-21T17:31:41.012Z,53.70
2018-10-21T17:34:10.802Z,54.10
2018-10-21T17:36:40.566Z,54.30
2018-10-21T17:39:13.126Z,55.90
2018-10-21T17:41:43.286Z,56.20
2018-10-21T17:44:13.396Z,55.90
2018-10-21T17:46:43.430Z,56.60
2018-10-21T17:49:13.274Z,56.10
2018-10-21T17:51:43.080Z,56.20
2018-10-21T17:54:12.858Z,56.30
2018-10-21T17:56:48.138Z,56.40
2018-10-21T17:59:17.947Z,56.20
2018-10-21T18:01:47.733Z,56.70
2018-10-21T18:04:17.531Z,56.20
2018-10-21T18:06:47.361Z,56.50
2018-10-21T18:09:18.172Z,56.80
2018-10-21T18:11:47.950Z,57.00
2018-10-21T18:14:17.819Z,57.10
2018-10-21T18:16:47.570Z,57.40
2018-10-21T18:19:17.372Z,57.40
2018-10-21T18:21:47.337Z,57.70
2018-10-21T18:24:18.035Z,57.90
2018-10-21T18:26:47.771Z,58.10
2018-10-21T18:29:17.978Z,58.40
2018-10-21T18:31:47.770Z,58.70
2018-10-21T18:34:17.604Z,58.50
2018-10-21T18:36:47.270Z,58.90
2018-10-21T18:39:18.054Z,59.20
2018-10-21T18:41:47.932Z,59.70
2018-10-21T18:44:17.658Z,59.60
2018-10-21T18:46:47.425Z,59.60
2018-10-21T18:49:17.295Z,59.70
2018-10-21T18:51:46.950Z,59.90
2018-10-21T18:54:16.696Z,59.60
2018-10-21T18:56:46.537Z,59.70
2018-10-21T18:59:16.526Z,59.80
2018-10-21T19:01:46.573Z,60.00
2018-10-21T19:04:16.571Z,60.00
2018-10-21T19:06:46.411Z,59.90
2018-10-21T19:09:16.219Z,60.00
2018-10-21T19:11:45.977Z,60.20
2018-10-21T19:14:15.892Z,60.10
2018-10-21T19:16:45.722Z,60.30
2018-10-21T19:19:15.567Z,60.40
2018-10-21T19:21:45.344Z,60.20
2018-10-21T19:24:15.166Z,60.50
2018-10-21T19:26:44.954Z,60.90
2018-10-21T19:29:14.849Z,60.50
2018-10-21T19:31:44.610Z,60.80
2018-10-21T19:34:14.566Z,61.20
2018-10-21T19:36:44.555Z,60.70
2018-10-21T19:39:14.493Z,61.10
2018-10-21T19:41:44.366Z,61.60
2018-10-21T19:44:14.286Z,61.50
2018-10-21T19:46:44.241Z,62.20
2018-10-21T19:49:14.123Z,61.70
2018-10-21T19:51:43.973Z,62.60
2018-10-21T19:54:13.728Z,62.50
2018-10-21T19:56:43.643Z,61.90
2018-10-21T19:59:13.402Z,62.40
2018-10-21T20:01:43.344Z,62.30
2018-10-21T20:04:13.304Z,62.10
2018-10-21T20:06:43.084Z,62.30
2018-10-21T20:09:12.848Z,62.30
2018-10-21T20:11:42.634Z,62.90
2018-10-21T20:14:12.494Z,63.20
2018-10-21T20:16:42.247Z,62.80
2018-10-21T20:19:12.116Z,63.20
2018-10-21T20:21:41.847Z,63.10
2018-10-21T20:24:11.692Z,63.30
2018-10-21T20:26:41.628Z,63.50
2018-10-21T20:29:11.420Z,63.90
2018-10-21T20:31:41.228Z,63.90
2018-10-21T20:34:11.076Z,64.00
2018-10-21T20:36:40.866Z,64.80
2018-10-21T20:39:11.103Z,64.60
2018-10-21T20:41:40.864Z,64.50
2018-10-21T20:44:10.674Z,64.30
2018-10-21T20:46:40.455Z,64.90
2018-10-21T20:49:10.277Z,64.90
2018-10-21T20:51:40.225Z,64.90
2018-10-21T20:54:10.229Z,65.30
2018-10-21T20:56:40.051Z,65.50
2018-10-21T20:59:09.751Z,65.50
2018-10-21T21:01:39.497Z,65.50
2018-10-21T21:04:09.684Z,65.40
2018-10-21T21:06:39.467Z,65.60
2018-10-21T21:09:09.543Z,65.70
2018-10-21T21:11:39.281Z,65.70
2018-10-21T21:14:09.079Z,66.00
2018-10-21T21:16:39.031Z,65.90
2018-10-21T21:19:08.741Z,65.80
2018-10-21T21:21:38.707Z,65.90
2018-10-21T21:24:08.486Z,65.70
2018-10-21T21:26:38.280Z,65.90
2018-10-21T21:29:08.160Z,66.20
2018-10-21T21:31:38.139Z,66.10
2018-10-21T21:34:08.104Z,66.50
2018-10-21T21:36:38.038Z,66.20
2018-10-21T21:39:10.414Z,66.40
2018-10-21T21:41:40.894Z,66.30
2018-10-21T21:44:10.676Z,66.60
2018-10-21T21:46:41.424Z,67.10
2018-10-21T21:49:12.167Z,67.20
2018-10-21T21:51:41.886Z,67.10
2018-10-21T21:54:13.061Z,67.30
2018-10-21T21:56:44.782Z,67.30
2018-10-21T21:59:14.505Z,67.40
2018-10-21T22:01:44.231Z,67.50
2018-10-21T22:04:14.000Z,67.50
2018-10-21T22:06:43.723Z,67.60
2018-10-21T22:09:13.820Z,68.00
2018-10-21T22:11:43.601Z,67.70
2018-10-21T22:14:13.360Z,67.70
2018-10-21T22:16:43.205Z,67.60
2018-10-21T22:19:12.915Z,68.00
2018-10-21T22:21:42.807Z,68.10
2018-10-21T22:24:12.590Z,67.90
2018-10-21T22:26:42.374Z,68.40
2018-10-21T22:29:12.062Z,68.70
2018-10-21T22:31:41.840Z,69.30
2018-10-21T22:34:11.697Z,69.40
2018-10-21T22:36:41.284Z,69.50
2018-10-21T22:39:11.161Z,69.70
2018-10-21T22:41:40.833Z,70.20
2018-10-21T22:44:10.559Z,69.90
2018-10-21T22:46:40.594Z,70.10
2018-10-21T22:49:10.244Z,70.40
2018-10-21T22:51:39.966Z,70.30
2018-10-21T22:54:09.725Z,70.40
2018-10-21T22:56:39.437Z,70.20
2018-10-21T22:59:09.126Z,70.10
2018-10-21T23:01:38.834Z,70.50
2018-10-21T23:04:08.666Z,70.50
2018-10-21T23:06:38.412Z,70.70
2018-10-21T23:09:09.497Z,70.80
2018-10-21T23:11:39.459Z,71.10
2018-10-21T23:14:09.172Z,71.20
2018-10-21T23:16:38.962Z,70.70
2018-10-21T23:19:20.211Z,70.50
2018-10-21T23:21:49.933Z,70.40
2018-10-21T23:24:19.676Z,70.80
2018-10-21T23:26:49.333Z,70.90
2018-10-21T23:29:18.994Z,71.10
2018-10-21T23:31:48.722Z,71.60
2018-10-21T23:34:18.498Z,71.70
2018-10-21T23:36:48.148Z,71.10
2018-10-21T23:39:18.685Z,71.20
2018-10-21T23:41:48.434Z,71.30
2018-10-21T23:44:18.165Z,71.60
2018-10-21T23:46:48.130Z,71.70
2018-10-21T23:49:17.791Z,71.50
2018-10-21T23:51:47.682Z,71.70
2018-10-21T23:54:18.329Z,71.50
2018-10-21T23:56:48.007Z,71.30
2018-10-21T23:59:17.709Z,71.30
